sensor_id;sensor_type;location;lat;lon;timestamp;P1;durP1;ratioP1;P2;durP2;ratioP2
11305;SDS011;5708;50.660;6.778;2024-01-30T00:01:11;13.45;;;6.70;;
11305;SDS011;5708;50.660;6.778;2024-01-30T00:03:36;11.43;;;6.57;;
11305;SDS011;5708;50.660;6.778;2024-01-30T00:06:03;14.13;;;6.88;;
11305;SDS011;5708;50.660;6.778;2024-01-30T00:08:28;15.07;;;6.70;;
11305;SDS011;5708;50.660;6.778;2024-01-30T00:10:54;14.88;;;8.38;;
11305;SDS011;5708;50.660;6.778;2024-01-30T00:13:19;12.38;;;6.90;;
11305;SDS011;5708;50.660;6.778;2024-01-30T00:15:45;11.57;;;6.65;;
11305;SDS011;5708;50.660;6.778;2024-01-30T00:18:10;13.90;;;7.07;;
11305;SDS011;5708;50.660;6.778;2024-01-30T00:20:36;11.45;;;6.50;;
11305;SDS011;5708;50.660;6.778;2024-01-30T00:23:01;12.55;;;7.20;;
11305;SDS011;5708;50.660;6.778;2024-01-30T00:25:27;12.85;;;6.90;;
11305;SDS011;5708;50.660;6.778;2024-01-30T00:27:52;12.27;;;7.03;;
11305;SDS011;5708;50.660;6.778;2024-01-30T00:30:17;13.32;;;6.80;;
11305;SDS011;5708;50.660;6.778;2024-01-30T00:32:43;14.52;;;7.35;;
11305;SDS011;5708;50.660;6.778;2024-01-30T00:35:08;12.77;;;7.00;;
11305;SDS011;5708;50.660;6.778;2024-01-30T00:37:35;13.82;;;7.40;;
11305;SDS011;5708;50.660;6.778;2024-01-30T00:40:00;15.00;;;7.22;;
11305;SDS011;5708;50.660;6.778;2024-01-30T00:42:26;12.13;;;7.05;;
11305;SDS011;5708;50.660;6.778;2024-01-30T00:44:51;14.48;;;7.35;;
11305;SDS011;5708;50.660;6.778;2024-01-30T00:47:17;13.15;;;7.30;;
11305;SDS011;5708;50.660;6.778;2024-01-30T00:49:42;13.38;;;7.15;;
11305;SDS011;5708;50.660;6.778;2024-01-30T00:52:07;11.40;;;6.57;;
11305;SDS011;5708;50.660;6.778;2024-01-30T00:54:33;12.30;;;6.78;;
11305;SDS011;5708;50.660;6.778;2024-01-30T00:56:58;14.30;;;7.65;;
11305;SDS011;5708;50.660;6.778;2024-01-30T00:59:24;13.00;;;6.82;;
11305;SDS011;5708;50.660;6.778;2024-01-30T01:01:50;11.77;;;6.80;;
11305;SDS011;5708;50.660;6.778;2024-01-30T01:04:15;14.40;;;6.88;;
11305;SDS011;5708;50.660;6.778;2024-01-30T01:06:41;13.65;;;7.28;;
11305;SDS011;5708;50.660;6.778;2024-01-30T01:09:09;13.05;;;7.45;;
11305;SDS011;5708;50.660;6.778;2024-01-30T01:11:35;13.90;;;6.55;;
11305;SDS011;5708;50.660;6.778;2024-01-30T01:14:01;14.07;;;6.82;;
11305;SDS011;5708;50.660;6.778;2024-01-30T01:16:26;14.18;;;7.20;;
11305;SDS011;5708;50.660;6.778;2024-01-30T01:18:51;13.43;;;7.32;;
11305;SDS011;5708;50.660;6.778;2024-01-30T01:21:17;15.10;;;7.18;;
11305;SDS011;5708;50.660;6.778;2024-01-30T01:23:42;12.98;;;7.00;;
11305;SDS011;5708;50.660;6.778;2024-01-30T01:26:08;12.60;;;7.00;;
11305;SDS011;5708;50.660;6.778;2024-01-30T01:28:34;13.77;;;7.25;;
11305;SDS011;5708;50.660;6.778;2024-01-30T01:31:00;13.45;;;6.90;;
11305;SDS011;5708;50.660;6.778;2024-01-30T01:33:30;16.02;;;7.30;;
11305;SDS011;5708;50.660;6.778;2024-01-30T01:35:57;12.15;;;7.30;;
11305;SDS011;5708;50.660;6.778;2024-01-30T01:38:23;11.80;;;6.45;;
11305;SDS011;5708;50.660;6.778;2024-01-30T01:40:48;15.20;;;6.90;;
11305;SDS011;5708;50.660;6.778;2024-01-30T01:43:14;15.35;;;6.97;;
11305;SDS011;5708;50.660;6.778;2024-01-30T01:45:39;11.93;;;6.30;;
11305;SDS011;5708;50.660;6.778;2024-01-30T01:48:04;17.27;;;7.40;;
11305;SDS011;5708;50.660;6.778;2024-01-30T01:50:30;15.23;;;7.07;;
11305;SDS011;5708;50.660;6.778;2024-01-30T01:52:55;15.05;;;6.80;;
11305;SDS011;5708;50.660;6.778;2024-01-30T01:55:21;12.68;;;6.38;;
11305;SDS011;5708;50.660;6.778;2024-01-30T01:57:49;13.05;;;6.65;;
11305;SDS011;5708;50.660;6.778;2024-01-30T02:00:14;13.07;;;6.75;;
11305;SDS011;5708;50.660;6.778;2024-01-30T02:02:40;10.60;;;5.93;;
11305;SDS011;5708;50.660;6.778;2024-01-30T02:05:06;11.40;;;5.95;;
11305;SDS011;5708;50.660;6.778;2024-01-30T02:07:33;11.50;;;6.22;;
11305;SDS011;5708;50.660;6.778;2024-01-30T02:09:58;8.80;;;5.38;;
11305;SDS011;5708;50.660;6.778;2024-01-30T02:12:24;10.35;;;5.78;;
11305;SDS011;5708;50.660;6.778;2024-01-30T02:14:50;11.50;;;5.40;;
11305;SDS011;5708;50.660;6.778;2024-01-30T02:17:15;15.38;;;6.00;;
11305;SDS011;5708;50.660;6.778;2024-01-30T02:19:41;11.25;;;5.55;;
11305;SDS011;5708;50.660;6.778;2024-01-30T02:22:07;13.30;;;6.13;;
11305;SDS011;5708;50.660;6.778;2024-01-30T02:24:33;12.80;;;6.03;;
11305;SDS011;5708;50.660;6.778;2024-01-30T02:26:58;10.85;;;6.07;;
11305;SDS011;5708;50.660;6.778;2024-01-30T02:29:23;10.20;;;5.60;;
11305;SDS011;5708;50.660;6.778;2024-01-30T02:31:49;10.38;;;5.97;;
11305;SDS011;5708;50.660;6.778;2024-01-30T02:34:14;12.75;;;6.90;;
11305;SDS011;5708;50.660;6.778;2024-01-30T02:36:43;15.40;;;6.80;;
11305;SDS011;5708;50.660;6.778;2024-01-30T02:39:09;13.15;;;6.57;;
11305;SDS011;5708;50.660;6.778;2024-01-30T02:41:34;10.57;;;5.97;;
11305;SDS011;5708;50.660;6.778;2024-01-30T02:44:00;10.82;;;5.85;;
11305;SDS011;5708;50.660;6.778;2024-01-30T02:46:26;10.23;;;6.47;;
11305;SDS011;5708;50.660;6.778;2024-01-30T02:48:51;13.52;;;6.28;;
11305;SDS011;5708;50.660;6.778;2024-01-30T02:51:16;13.60;;;6.40;;
11305;SDS011;5708;50.660;6.778;2024-01-30T02:53:42;11.85;;;6.20;;
11305;SDS011;5708;50.660;6.778;2024-01-30T02:56:07;11.32;;;5.97;;
11305;SDS011;5708;50.660;6.778;2024-01-30T02:58:35;11.25;;;6.45;;
11305;SDS011;5708;50.660;6.778;2024-01-30T03:01:01;11.35;;;5.95;;
11305;SDS011;5708;50.660;6.778;2024-01-30T03:03:26;11.88;;;5.70;;
11305;SDS011;5708;50.660;6.778;2024-01-30T03:05:52;12.55;;;5.53;;
11305;SDS011;5708;50.660;6.778;2024-01-30T03:08:17;9.68;;;5.75;;
11305;SDS011;5708;50.660;6.778;2024-01-30T03:10:43;10.70;;;6.07;;
11305;SDS011;5708;50.660;6.778;2024-01-30T03:13:08;9.82;;;6.00;;
11305;SDS011;5708;50.660;6.778;2024-01-30T03:15:33;10.85;;;6.65;;
11305;SDS011;5708;50.660;6.778;2024-01-30T03:17:59;9.93;;;5.72;;
11305;SDS011;5708;50.660;6.778;2024-01-30T03:20:24;12.88;;;6.10;;
11305;SDS011;5708;50.660;6.778;2024-01-30T03:22:49;10.57;;;6.00;;
11305;SDS011;5708;50.660;6.778;2024-01-30T03:25:15;13.20;;;6.47;;
11305;SDS011;5708;50.660;6.778;2024-01-30T03:27:40;11.52;;;6.72;;
11305;SDS011;5708;50.660;6.778;2024-01-30T03:30:09;11.50;;;6.07;;
11305;SDS011;5708;50.660;6.778;2024-01-30T03:32:34;9.27;;;5.72;;
11305;SDS011;5708;50.660;6.778;2024-01-30T03:35:00;12.77;;;6.53;;
11305;SDS011;5708;50.660;6.778;2024-01-30T03:37:25;15.52;;;7.07;;
11305;SDS011;5708;50.660;6.778;2024-01-30T03:39:50;12.23;;;6.65;;
11305;SDS011;5708;50.660;6.778;2024-01-30T03:42:16;9.90;;;5.80;;
11305;SDS011;5708;50.660;6.778;2024-01-30T03:44:41;10.75;;;6.00;;
11305;SDS011;5708;50.660;6.778;2024-01-30T03:47:07;10.20;;;5.97;;
11305;SDS011;5708;50.660;6.778;2024-01-30T03:49:33;13.00;;;6.15;;
11305;SDS011;5708;50.660;6.778;2024-01-30T03:51:58;12.18;;;6.60;;
11305;SDS011;5708;50.660;6.778;2024-01-30T03:54:24;10.82;;;6.45;;
11305;SDS011;5708;50.660;6.778;2024-01-30T03:56:49;10.48;;;5.93;;
11305;SDS011;5708;50.660;6.778;2024-01-30T03:59:14;11.30;;;6.47;;
11305;SDS011;5708;50.660;6.778;2024-01-30T04:01:40;11.18;;;6.68;;
11305;SDS011;5708;50.660;6.778;2024-01-30T04:04:05;13.05;;;7.35;;
11305;SDS011;5708;50.660;6.778;2024-01-30T04:06:31;10.82;;;6.40;;
11305;SDS011;5708;50.660;6.778;2024-01-30T04:08:56;13.65;;;6.85;;
11305;SDS011;5708;50.660;6.778;2024-01-30T04:11:22;14.43;;;6.47;;
11305;SDS011;5708;50.660;6.778;2024-01-30T04:13:47;14.50;;;7.22;;
11305;SDS011;5708;50.660;6.778;2024-01-30T04:16:22;14.73;;;7.30;;
11305;SDS011;5708;50.660;6.778;2024-01-30T04:18:48;13.85;;;6.97;;
11305;SDS011;5708;50.660;6.778;2024-01-30T04:21:13;14.63;;;7.50;;
11305;SDS011;5708;50.660;6.778;2024-01-30T04:23:39;12.80;;;6.93;;
11305;SDS011;5708;50.660;6.778;2024-01-30T04:26:05;14.68;;;7.70;;
11305;SDS011;5708;50.660;6.778;2024-01-30T04:28:31;13.23;;;7.22;;
11305;SDS011;5708;50.660;6.778;2024-01-30T04:30:56;15.40;;;7.50;;
11305;SDS011;5708;50.660;6.778;2024-01-30T04:33:22;11.05;;;6.30;;
11305;SDS011;5708;50.660;6.778;2024-01-30T04:35:47;15.13;;;7.40;;
11305;SDS011;5708;50.660;6.778;2024-01-30T04:38:12;12.75;;;6.82;;
11305;SDS011;5708;50.660;6.778;2024-01-30T04:40:39;12.50;;;7.20;;
11305;SDS011;5708;50.660;6.778;2024-01-30T04:43:05;15.75;;;6.13;;
11305;SDS011;5708;50.660;6.778;2024-01-30T04:45:30;11.55;;;6.68;;
11305;SDS011;5708;50.660;6.778;2024-01-30T04:47:56;13.95;;;7.00;;
11305;SDS011;5708;50.660;6.778;2024-01-30T04:50:22;13.00;;;6.65;;
11305;SDS011;5708;50.660;6.778;2024-01-30T04:52:48;10.55;;;6.55;;
11305;SDS011;5708;50.660;6.778;2024-01-30T04:55:14;11.80;;;6.82;;
11305;SDS011;5708;50.660;6.778;2024-01-30T04:57:39;12.65;;;7.35;;
11305;SDS011;5708;50.660;6.778;2024-01-30T05:00:05;11.77;;;7.03;;
11305;SDS011;5708;50.660;6.778;2024-01-30T05:02:31;13.43;;;6.75;;
11305;SDS011;5708;50.660;6.778;2024-01-30T05:04:56;14.70;;;6.63;;
11305;SDS011;5708;50.660;6.778;2024-01-30T05:07:23;13.57;;;6.75;;
11305;SDS011;5708;50.660;6.778;2024-01-30T05:09:49;12.35;;;7.07;;
11305;SDS011;5708;50.660;6.778;2024-01-30T05:12:15;13.00;;;6.50;;
11305;SDS011;5708;50.660;6.778;2024-01-30T05:14:40;14.32;;;7.40;;
11305;SDS011;5708;50.660;6.778;2024-01-30T05:17:05;12.65;;;6.60;;
11305;SDS011;5708;50.660;6.778;2024-01-30T05:19:31;10.48;;;6.28;;
11305;SDS011;5708;50.660;6.778;2024-01-30T05:21:56;15.52;;;7.40;;
11305;SDS011;5708;50.660;6.778;2024-01-30T05:24:21;11.48;;;6.60;;
11305;SDS011;5708;50.660;6.778;2024-01-30T05:26:47;11.20;;;6.57;;
11305;SDS011;5708;50.660;6.778;2024-01-30T05:29:13;12.23;;;6.78;;
11305;SDS011;5708;50.660;6.778;2024-01-30T05:31:38;12.15;;;6.50;;
11305;SDS011;5708;50.660;6.778;2024-01-30T05:34:04;11.10;;;6.85;;
11305;SDS011;5708;50.660;6.778;2024-01-30T05:36:29;12.57;;;6.88;;
11305;SDS011;5708;50.660;6.778;2024-01-30T05:38:55;12.80;;;7.25;;
11305;SDS011;5708;50.660;6.778;2024-01-30T05:41:21;13.00;;;6.75;;
11305;SDS011;5708;50.660;6.778;2024-01-30T05:43:46;11.95;;;7.03;;
11305;SDS011;5708;50.660;6.778;2024-01-30T05:46:12;13.93;;;7.00;;
11305;SDS011;5708;50.660;6.778;2024-01-30T05:48:37;11.77;;;7.40;;
11305;SDS011;5708;50.660;6.778;2024-01-30T05:51:02;13.02;;;6.68;;
11305;SDS011;5708;50.660;6.778;2024-01-30T05:53:29;16.98;;;7.55;;
11305;SDS011;5708;50.660;6.778;2024-01-30T05:55:54;13.88;;;6.80;;
11305;SDS011;5708;50.660;6.778;2024-01-30T05:58:20;14.55;;;6.57;;
11305;SDS011;5708;50.660;6.778;2024-01-30T06:00:45;11.60;;;6.85;;
11305;SDS011;5708;50.660;6.778;2024-01-30T06:03:11;12.82;;;6.45;;
11305;SDS011;5708;50.660;6.778;2024-01-30T06:05:36;14.60;;;6.65;;
11305;SDS011;5708;50.660;6.778;2024-01-30T06:08:02;14.07;;;6.75;;
11305;SDS011;5708;50.660;6.778;2024-01-30T06:10:27;12.98;;;6.63;;
11305;SDS011;5708;50.660;6.778;2024-01-30T06:12:53;12.43;;;6.63;;
11305;SDS011;5708;50.660;6.778;2024-01-30T06:15:18;11.00;;;6.38;;
11305;SDS011;5708;50.660;6.778;2024-01-30T06:17:43;12.00;;;6.70;;
11305;SDS011;5708;50.660;6.778;2024-01-30T06:20:09;13.57;;;6.97;;
11305;SDS011;5708;50.660;6.778;2024-01-30T06:22:35;16.63;;;8.38;;
11305;SDS011;5708;50.660;6.778;2024-01-30T06:25:00;14.88;;;8.02;;
11305;SDS011;5708;50.660;6.778;2024-01-30T06:27:26;14.02;;;7.25;;
11305;SDS011;5708;50.660;6.778;2024-01-30T06:29:51;14.38;;;7.50;;
11305;SDS011;5708;50.660;6.778;2024-01-30T06:32:16;14.77;;;8.30;;
11305;SDS011;5708;50.660;6.778;2024-01-30T06:34:42;12.57;;;7.47;;
11305;SDS011;5708;50.660;6.778;2024-01-30T06:37:09;12.35;;;7.00;;
11305;SDS011;5708;50.660;6.778;2024-01-30T06:39:34;12.93;;;7.38;;
11305;SDS011;5708;50.660;6.778;2024-01-30T06:42:00;15.30;;;8.32;;
11305;SDS011;5708;50.660;6.778;2024-01-30T06:44:25;12.85;;;8.15;;
11305;SDS011;5708;50.660;6.778;2024-01-30T06:46:51;12.35;;;7.78;;
11305;SDS011;5708;50.660;6.778;2024-01-30T06:49:16;13.10;;;8.32;;
11305;SDS011;5708;50.660;6.778;2024-01-30T06:51:41;14.70;;;8.60;;
11305;SDS011;5708;50.660;6.778;2024-01-30T06:54:07;18.38;;;8.63;;
11305;SDS011;5708;50.660;6.778;2024-01-30T06:56:32;15.57;;;9.10;;
11305;SDS011;5708;50.660;6.778;2024-01-30T06:58:57;15.80;;;9.27;;
11305;SDS011;5708;50.660;6.778;2024-01-30T07:01:28;14.07;;;9.00;;
11305;SDS011;5708;50.660;6.778;2024-01-30T07:03:54;20.92;;;10.00;;
11305;SDS011;5708;50.660;6.778;2024-01-30T07:06:19;16.92;;;8.75;;
11305;SDS011;5708;50.660;6.778;2024-01-30T07:08:45;15.98;;;9.00;;
11305;SDS011;5708;50.660;6.778;2024-01-30T07:11:10;14.10;;;8.52;;
11305;SDS011;5708;50.660;6.778;2024-01-30T07:13:37;17.50;;;8.27;;
11305;SDS011;5708;50.660;6.778;2024-01-30T07:16:02;13.00;;;8.27;;
11305;SDS011;5708;50.660;6.778;2024-01-30T07:18:28;13.77;;;8.48;;
11305;SDS011;5708;50.660;6.778;2024-01-30T07:20:53;15.50;;;8.70;;
11305;SDS011;5708;50.660;6.778;2024-01-30T07:23:19;18.35;;;8.32;;
11305;SDS011;5708;50.660;6.778;2024-01-30T07:25:44;12.27;;;7.97;;
11305;SDS011;5708;50.660;6.778;2024-01-30T07:28:10;15.85;;;8.15;;
11305;SDS011;5708;50.660;6.778;2024-01-30T07:30:36;16.30;;;7.80;;
11305;SDS011;5708;50.660;6.778;2024-01-30T07:33:02;16.70;;;8.25;;
11305;SDS011;5708;50.660;6.778;2024-01-30T07:35:27;11.60;;;7.50;;
11305;SDS011;5708;50.660;6.778;2024-01-30T07:37:53;15.32;;;8.00;;
11305;SDS011;5708;50.660;6.778;2024-01-30T07:40:18;15.07;;;7.57;;
11305;SDS011;5708;50.660;6.778;2024-01-30T07:42:44;14.25;;;7.93;;
11305;SDS011;5708;50.660;6.778;2024-01-30T07:45:09;12.85;;;7.78;;
11305;SDS011;5708;50.660;6.778;2024-01-30T07:47:34;13.13;;;8.15;;
11305;SDS011;5708;50.660;6.778;2024-01-30T07:50:00;13.65;;;8.15;;
11305;SDS011;5708;50.660;6.778;2024-01-30T07:52:25;16.13;;;7.55;;
11305;SDS011;5708;50.660;6.778;2024-01-30T07:54:51;12.93;;;7.20;;
11305;SDS011;5708;50.660;6.778;2024-01-30T07:57:17;12.98;;;7.22;;
11305;SDS011;5708;50.660;6.778;2024-01-30T07:59:43;15.75;;;7.32;;
11305;SDS011;5708;50.660;6.778;2024-01-30T08:02:14;16.42;;;7.88;;
11305;SDS011;5708;50.660;6.778;2024-01-30T08:04:41;12.23;;;7.43;;
11305;SDS011;5708;50.660;6.778;2024-01-30T08:07:07;13.30;;;7.70;;
11305;SDS011;5708;50.660;6.778;2024-01-30T08:09:32;14.45;;;7.18;;
11305;SDS011;5708;50.660;6.778;2024-01-30T08:11:58;14.57;;;7.30;;
11305;SDS011;5708;50.660;6.778;2024-01-30T08:14:23;14.10;;;8.10;;
11305;SDS011;5708;50.660;6.778;2024-01-30T08:16:49;16.30;;;8.40;;
11305;SDS011;5708;50.660;6.778;2024-01-30T08:19:15;14.57;;;7.72;;
11305;SDS011;5708;50.660;6.778;2024-01-30T08:21:40;14.45;;;7.68;;
11305;SDS011;5708;50.660;6.778;2024-01-30T08:24:06;13.05;;;7.45;;
11305;SDS011;5708;50.660;6.778;2024-01-30T08:26:32;15.23;;;7.63;;
11305;SDS011;5708;50.660;6.778;2024-01-30T08:28:58;13.27;;;6.72;;
11305;SDS011;5708;50.660;6.778;2024-01-30T08:31:23;13.07;;;6.97;;
11305;SDS011;5708;50.660;6.778;2024-01-30T08:33:49;11.60;;;6.50;;
11305;SDS011;5708;50.660;6.778;2024-01-30T08:36:15;10.30;;;5.75;;
11305;SDS011;5708;50.660;6.778;2024-01-30T08:38:41;11.30;;;6.00;;
11305;SDS011;5708;50.660;6.778;2024-01-30T08:41:07;13.27;;;6.43;;
11305;SDS011;5708;50.660;6.778;2024-01-30T08:43:32;10.65;;;5.72;;
11305;SDS011;5708;50.660;6.778;2024-01-30T08:46:01;12.20;;;5.97;;
11305;SDS011;5708;50.660;6.778;2024-01-30T08:48:26;10.02;;;6.05;;
11305;SDS011;5708;50.660;6.778;2024-01-30T08:50:52;13.77;;;5.80;;
11305;SDS011;5708;50.660;6.778;2024-01-30T08:53:17;16.52;;;7.35;;
11305;SDS011;5708;50.660;6.778;2024-01-30T08:55:43;12.43;;;6.70;;
11305;SDS011;5708;50.660;6.778;2024-01-30T08:58:09;10.73;;;5.35;;
11305;SDS011;5708;50.660;6.778;2024-01-30T09:00:34;14.75;;;5.70;;
11305;SDS011;5708;50.660;6.778;2024-01-30T09:03:00;12.55;;;6.63;;
11305;SDS011;5708;50.660;6.778;2024-01-30T09:05:25;12.30;;;6.07;;
11305;SDS011;5708;50.660;6.778;2024-01-30T09:07:50;12.60;;;5.35;;
11305;SDS011;5708;50.660;6.778;2024-01-30T09:10:16;11.32;;;5.43;;
11305;SDS011;5708;50.660;6.778;2024-01-30T09:12:41;13.23;;;6.28;;
11305;SDS011;5708;50.660;6.778;2024-01-30T09:15:06;10.52;;;5.22;;
11305;SDS011;5708;50.660;6.778;2024-01-30T09:17:32;15.48;;;5.32;;
11305;SDS011;5708;50.660;6.778;2024-01-30T09:19:58;12.27;;;5.15;;
11305;SDS011;5708;50.660;6.778;2024-01-30T09:22:23;11.45;;;5.20;;
11305;SDS011;5708;50.660;6.778;2024-01-30T09:24:49;12.38;;;5.05;;
11305;SDS011;5708;50.660;6.778;2024-01-30T09:27:14;10.77;;;4.97;;
11305;SDS011;5708;50.660;6.778;2024-01-30T09:29:40;10.05;;;4.88;;
11305;SDS011;5708;50.660;6.778;2024-01-30T09:32:05;12.50;;;6.15;;
11305;SDS011;5708;50.660;6.778;2024-01-30T09:34:31;13.77;;;6.38;;
11305;SDS011;5708;50.660;6.778;2024-01-30T09:36:58;11.90;;;5.75;;
11305;SDS011;5708;50.660;6.778;2024-01-30T09:39:24;11.35;;;7.03;;
11305;SDS011;5708;50.660;6.778;2024-01-30T09:41:52;10.40;;;5.80;;
11305;SDS011;5708;50.660;6.778;2024-01-30T09:44:28;10.55;;;4.68;;
11305;SDS011;5708;50.660;6.778;2024-01-30T09:46:54;9.43;;;4.97;;
11305;SDS011;5708;50.660;6.778;2024-01-30T09:49:20;10.95;;;4.85;;
11305;SDS011;5708;50.660;6.778;2024-01-30T09:51:45;9.25;;;4.85;;
11305;SDS011;5708;50.660;6.778;2024-01-30T09:54:11;8.20;;;4.10;;
11305;SDS011;5708;50.660;6.778;2024-01-30T09:56:39;9.90;;;4.20;;
11305;SDS011;5708;50.660;6.778;2024-01-30T09:59:04;11.23;;;4.05;;
11305;SDS011;5708;50.660;6.778;2024-01-30T10:01:30;9.93;;;4.28;;
11305;SDS011;5708;50.660;6.778;2024-01-30T10:03:56;11.73;;;4.32;;
11305;SDS011;5708;50.660;6.778;2024-01-30T10:06:21;9.45;;;4.60;;
11305;SDS011;5708;50.660;6.778;2024-01-30T10:08:48;12.82;;;6.53;;
11305;SDS011;5708;50.660;6.778;2024-01-30T10:11:13;12.10;;;5.90;;
11305;SDS011;5708;50.660;6.778;2024-01-30T10:13:38;11.02;;;5.28;;
11305;SDS011;5708;50.660;6.778;2024-01-30T10:16:04;9.45;;;5.20;;
11305;SDS011;5708;50.660;6.778;2024-01-30T10:18:31;9.77;;;4.72;;
11305;SDS011;5708;50.660;6.778;2024-01-30T10:20:57;11.10;;;5.55;;
11305;SDS011;5708;50.660;6.778;2024-01-30T10:23:22;12.45;;;5.78;;
11305;SDS011;5708;50.660;6.778;2024-01-30T10:25:47;11.52;;;5.65;;
11305;SDS011;5708;50.660;6.778;2024-01-30T10:28:13;9.23;;;4.80;;
11305;SDS011;5708;50.660;6.778;2024-01-30T10:30:38;9.20;;;4.97;;
11305;SDS011;5708;50.660;6.778;2024-01-30T10:33:03;13.68;;;5.22;;
11305;SDS011;5708;50.660;6.778;2024-01-30T10:35:29;9.35;;;4.82;;
11305;SDS011;5708;50.660;6.778;2024-01-30T10:37:55;9.48;;;4.97;;
11305;SDS011;5708;50.660;6.778;2024-01-30T10:40:22;11.82;;;5.75;;
11305;SDS011;5708;50.660;6.778;2024-01-30T10:42:53;10.20;;;5.50;;
11305;SDS011;5708;50.660;6.778;2024-01-30T10:45:20;10.48;;;5.82;;
11305;SDS011;5708;50.660;6.778;2024-01-30T10:47:50;10.20;;;5.32;;
11305;SDS011;5708;50.660;6.778;2024-01-30T10:50:16;10.77;;;5.10;;
11305;SDS011;5708;50.660;6.778;2024-01-30T10:52:41;11.65;;;5.40;;
11305;SDS011;5708;50.660;6.778;2024-01-30T10:55:08;10.65;;;4.95;;
11305;SDS011;5708;50.660;6.778;2024-01-30T10:57:35;9.15;;;4.68;;
11305;SDS011;5708;50.660;6.778;2024-01-30T11:00:02;11.45;;;4.68;;
11305;SDS011;5708;50.660;6.778;2024-01-30T11:02:39;9.95;;;4.78;;
11305;SDS011;5708;50.660;6.778;2024-01-30T11:05:05;9.77;;;5.07;;
11305;SDS011;5708;50.660;6.778;2024-01-30T11:07:31;11.52;;;4.95;;
11305;SDS011;5708;50.660;6.778;2024-01-30T11:10:00;12.05;;;4.60;;
11305;SDS011;5708;50.660;6.778;2024-01-30T11:12:30;8.85;;;4.80;;
11305;SDS011;5708;50.660;6.778;2024-01-30T11:15:02;13.30;;;5.10;;
11305;SDS011;5708;50.660;6.778;2024-01-30T11:17:38;9.82;;;4.80;;
11305;SDS011;5708;50.660;6.778;2024-01-30T11:20:16;10.13;;;4.63;;
11305;SDS011;5708;50.660;6.778;2024-01-30T11:22:52;12.80;;;4.95;;
11305;SDS011;5708;50.660;6.778;2024-01-30T11:25:22;12.93;;;5.47;;
11305;SDS011;5708;50.660;6.778;2024-01-30T11:27:51;9.23;;;4.18;;
11305;SDS011;5708;50.660;6.778;2024-01-30T11:30:28;9.27;;;4.20;;
11305;SDS011;5708;50.660;6.778;2024-01-30T11:33:07;10.20;;;4.63;;
11305;SDS011;5708;50.660;6.778;2024-01-30T11:35:36;10.13;;;4.70;;
11305;SDS011;5708;50.660;6.778;2024-01-30T11:38:12;16.13;;;7.10;;
11305;SDS011;5708;50.660;6.778;2024-01-30T11:40:39;11.50;;;5.97;;
11305;SDS011;5708;50.660;6.778;2024-01-30T11:43:05;13.38;;;6.43;;
11305;SDS011;5708;50.660;6.778;2024-01-30T11:45:32;12.70;;;6.55;;
11305;SDS011;5708;50.660;6.778;2024-01-30T11:47:58;16.35;;;8.48;;
11305;SDS011;5708;50.660;6.778;2024-01-30T11:50:26;16.20;;;8.82;;
11305;SDS011;5708;50.660;6.778;2024-01-30T11:52:51;20.23;;;10.73;;
11305;SDS011;5708;50.660;6.778;2024-01-30T11:55:17;14.85;;;6.00;;
11305;SDS011;5708;50.660;6.778;2024-01-30T11:57:42;12.43;;;6.15;;
11305;SDS011;5708;50.660;6.778;2024-01-30T12:00:18;10.98;;;5.30;;
11305;SDS011;5708;50.660;6.778;2024-01-30T12:02:49;13.48;;;6.13;;
11305;SDS011;5708;50.660;6.778;2024-01-30T12:05:15;11.43;;;5.30;;
11305;SDS011;5708;50.660;6.778;2024-01-30T12:07:43;10.73;;;5.50;;
11305;SDS011;5708;50.660;6.778;2024-01-30T12:10:09;11.40;;;5.25;;
11305;SDS011;5708;50.660;6.778;2024-01-30T12:12:34;14.65;;;4.68;;
11305;SDS011;5708;50.660;6.778;2024-01-30T12:15:00;9.60;;;4.40;;
11305;SDS011;5708;50.660;6.778;2024-01-30T12:20:04;12.25;;;4.55;;
11305;SDS011;5708;50.660;6.778;2024-01-30T12:22:31;12.07;;;4.53;;
11305;SDS011;5708;50.660;6.778;2024-01-30T12:27:39;11.52;;;4.35;;
11305;SDS011;5708;50.660;6.778;2024-01-30T12:30:07;10.35;;;4.60;;
11305;SDS011;5708;50.660;6.778;2024-01-30T12:32:36;15.68;;;5.22;;
11305;SDS011;5708;50.660;6.778;2024-01-30T12:35:02;11.40;;;4.35;;
11305;SDS011;5708;50.660;6.778;2024-01-30T12:37:29;16.05;;;4.70;;
11305;SDS011;5708;50.660;6.778;2024-01-30T12:39:55;14.32;;;5.10;;
11305;SDS011;5708;50.660;6.778;2024-01-30T12:42:20;12.32;;;4.68;;
11305;SDS011;5708;50.660;6.778;2024-01-30T12:44:48;13.55;;;4.90;;
11305;SDS011;5708;50.660;6.778;2024-01-30T12:47:14;14.43;;;4.70;;
11305;SDS011;5708;50.660;6.778;2024-01-30T12:49:41;13.60;;;5.22;;
11305;SDS011;5708;50.660;6.778;2024-01-30T12:52:08;11.05;;;4.50;;
11305;SDS011;5708;50.660;6.778;2024-01-30T12:54:34;12.90;;;5.25;;
11305;SDS011;5708;50.660;6.778;2024-01-30T12:56:59;9.73;;;5.32;;
11305;SDS011;5708;50.660;6.778;2024-01-30T12:59:24;12.57;;;5.28;;
11305;SDS011;5708;50.660;6.778;2024-01-30T13:01:50;12.63;;;4.95;;
11305;SDS011;5708;50.660;6.778;2024-01-30T13:04:15;13.68;;;5.13;;
11305;SDS011;5708;50.660;6.778;2024-01-30T13:06:41;11.70;;;4.90;;
11305;SDS011;5708;50.660;6.778;2024-01-30T13:09:07;10.95;;;4.80;;
11305;SDS011;5708;50.660;6.778;2024-01-30T13:11:32;11.52;;;4.68;;
11305;SDS011;5708;50.660;6.778;2024-01-30T13:13:58;9.50;;;4.68;;
11305;SDS011;5708;50.660;6.778;2024-01-30T13:16:23;12.30;;;4.95;;
11305;SDS011;5708;50.660;6.778;2024-01-30T13:18:48;15.80;;;5.22;;
11305;SDS011;5708;50.660;6.778;2024-01-30T13:21:14;12.65;;;4.65;;
11305;SDS011;5708;50.660;6.778;2024-01-30T13:23:39;14.32;;;5.10;;
11305;SDS011;5708;50.660;6.778;2024-01-30T13:26:05;12.05;;;5.60;;
11305;SDS011;5708;50.660;6.778;2024-01-30T13:28:31;11.65;;;5.22;;
11305;SDS011;5708;50.660;6.778;2024-01-30T13:30:56;11.18;;;4.93;;
11305;SDS011;5708;50.660;6.778;2024-01-30T13:33:22;13.10;;;5.43;;
11305;SDS011;5708;50.660;6.778;2024-01-30T13:35:47;12.88;;;5.65;;
11305;SDS011;5708;50.660;6.778;2024-01-30T13:38:12;14.13;;;5.53;;
11305;SDS011;5708;50.660;6.778;2024-01-30T13:40:39;12.15;;;5.72;;
11305;SDS011;5708;50.660;6.778;2024-01-30T13:43:04;13.00;;;5.88;;
11305;SDS011;5708;50.660;6.778;2024-01-30T13:45:29;19.35;;;5.72;;
11305;SDS011;5708;50.660;6.778;2024-01-30T13:47:55;12.93;;;5.70;;
11305;SDS011;5708;50.660;6.778;2024-01-30T13:50:20;14.07;;;6.05;;
11305;SDS011;5708;50.660;6.778;2024-01-30T13:52:46;9.25;;;5.53;;
11305;SDS011;5708;50.660;6.778;2024-01-30T13:55:12;11.93;;;6.10;;
11305;SDS011;5708;50.660;6.778;2024-01-30T13:57:37;11.65;;;5.57;;
11305;SDS011;5708;50.660;6.778;2024-01-30T14:00:03;11.57;;;5.78;;
11305;SDS011;5708;50.660;6.778;2024-01-30T14:02:32;14.77;;;5.50;;
11305;SDS011;5708;50.660;6.778;2024-01-30T14:04:57;14.98;;;5.70;;
11305;SDS011;5708;50.660;6.778;2024-01-30T14:07:23;17.27;;;5.78;;
11305;SDS011;5708;50.660;6.778;2024-01-30T14:09:48;11.68;;;5.35;;
11305;SDS011;5708;50.660;6.778;2024-01-30T14:12:14;13.35;;;5.55;;
11305;SDS011;5708;50.660;6.778;2024-01-30T14:14:39;13.82;;;5.88;;
11305;SDS011;5708;50.660;6.778;2024-01-30T14:17:05;13.00;;;5.45;;
11305;SDS011;5708;50.660;6.778;2024-01-30T14:19:32;15.32;;;6.05;;
11305;SDS011;5708;50.660;6.778;2024-01-30T14:21:58;12.30;;;6.10;;
11305;SDS011;5708;50.660;6.778;2024-01-30T14:24:23;10.27;;;5.47;;
11305;SDS011;5708;50.660;6.778;2024-01-30T14:26:49;12.25;;;5.57;;
11305;SDS011;5708;50.660;6.778;2024-01-30T14:29:14;11.60;;;5.25;;
11305;SDS011;5708;50.660;6.778;2024-01-30T14:31:39;9.43;;;5.22;;
11305;SDS011;5708;50.660;6.778;2024-01-30T14:34:05;14.57;;;5.72;;
11305;SDS011;5708;50.660;6.778;2024-01-30T14:36:30;12.00;;;5.20;;
11305;SDS011;5708;50.660;6.778;2024-01-30T14:38:56;10.73;;;5.57;;
11305;SDS011;5708;50.660;6.778;2024-01-30T14:41:22;13.13;;;5.28;;
11305;SDS011;5708;50.660;6.778;2024-01-30T14:43:47;9.57;;;4.82;;
11305;SDS011;5708;50.660;6.778;2024-01-30T14:46:12;9.43;;;5.15;;